Time;durP1;ratioP1;P1;durP2;ratioP2;P2;SDS_P1;SDS_P2;PMS_P1;PMS_P2;Temp;Humidity;BMP_temperature;BMP_pressure;BME280_temperature;BME280_humidity;BME280_pressure;Samples;Min_cycle;Max_cycle;Signal;HPM_P1;HPM_P2
2021/11/09 00:01:20;;;;;;;57.40;26.33;;;6.50;99.90;;;;;;5103481;28;20202;-72
2021/11/09 00:04:08;;;;;;;56.17;27.73;;;6.40;99.90;;;;;;5106683;28;20779;-71
2021/11/09 00:07:04;;;;;;;58.07;26.47;;;6.40;99.90;;;;;;5109711;28;20756;-72
2021/11/09 00:09:59;;;;;;;53.17;26.43;;;6.40;99.90;;;;;;5109205;28;20196;-71
2021/11/09 00:12:49;;;;;;;55.27;25.90;;;6.30;99.90;;;;;;5110348;28;20199;-72
2021/11/09 00:15:37;;;;;;;56.60;27.37;;;6.30;99.90;;;;;;5106765;28;20231;-71
2021/11/09 00:18:24;;;;;;;52.90;24.83;;;6.40;99.90;;;;;;5109180;28;20191;-71
2021/11/09 00:21:12;;;;;;;49.27;24.17;;;6.40;99.90;;;;;;5103024;28;20196;-72
2021/11/09 00:24:01;;;;;;;50.60;25.67;;;6.40;99.90;;;;;;5109561;28;20680;-71
2021/11/09 00:26:48;;;;;;;49.40;24.07;;;6.40;99.90;;;;;;5108830;28;20204;-71
2021/11/09 00:29:36;;;;;;;46.67;24.27;;;6.40;99.90;;;;;;5109272;28;20662;-71
2021/11/09 00:32:24;;;;;;;48.47;23.53;;;6.40;99.90;;;;;;5102692;28;20309;-71
2021/11/09 00:35:12;;;;;;;46.60;23.40;;;6.50;99.90;;;;;;5099432;28;20306;-71
2021/11/09 00:38:00;;;;;;;49.27;23.87;;;6.40;99.90;;;;;;5100880;28;20553;-71
2021/11/09 00:40:49;;;;;;;48.53;22.93;;;6.50;99.90;;;;;;5101593;28;20203;-71
2021/11/09 00:43:37;;;;;;;49.13;23.73;;;6.40;99.90;;;;;;5109044;28;20240;-72
2021/11/09 00:46:24;;;;;;;45.13;21.60;;;6.40;99.90;;;;;;5103230;28;20211;-71
2021/11/09 00:49:12;;;;;;;41.67;21.00;;;6.40;99.90;;;;;;5101096;28;20207;-71
2021/11/09 00:51:59;;;;;;;41.90;23.03;;;6.40;99.90;;;;;;5109145;28;20203;-71
2021/11/09 00:54:47;;;;;;;48.57;23.37;;;6.40;99.90;;;;;;5103469;28;20223;-72
2021/11/09 00:57:36;;;;;;;44.43;21.67;;;6.40;99.90;;;;;;5108623;28;20680;-71
2021/11/09 01:00:25;;;;;;;40.83;20.17;;;6.40;99.90;;;;;;5101336;28;20200;-72
2021/11/09 01:03:13;;;;;;;46.93;21.83;;;6.40;99.90;;;;;;5099943;28;20222;-71
2021/11/09 01:06:00;;;;;;;41.00;21.33;;;6.40;99.90;;;;;;5109653;28;20213;-71
2021/11/09 01:08:48;;;;;;;45.03;21.27;;;6.40;99.90;;;;;;5108962;28;20218;-71
2021/11/09 01:11:35;;;;;;;43.57;22.87;;;6.40;99.90;;;;;;5107031;28;20204;-71
2021/11/09 01:14:25;;;;;;;40.43;19.90;;;6.40;99.90;;;;;;5102219;28;20218;-71
2021/11/09 01:17:12;;;;;;;41.53;20.07;;;6.30;99.90;;;;;;5108802;28;20226;-71
2021/11/09 01:20:00;;;;;;;40.37;21.23;;;6.30;99.90;;;;;;5108478;28;20192;-71
2021/11/09 01:22:50;;;;;;;43.70;20.17;;;6.30;99.90;;;;;;5107102;28;20210;-71
2021/11/09 01:25:38;;;;;;;45.13;19.93;;;6.30;99.90;;;;;;5108351;28;20214;-71
2021/11/09 01:28:26;;;;;;;39.13;19.47;;;6.30;99.90;;;;;;5090006;28;20197;-72
2021/11/09 01:31:15;;;;;;;37.77;19.30;;;6.30;99.90;;;;;;5108719;28;20284;-71
2021/11/09 01:34:03;;;;;;;38.83;20.00;;;6.30;99.90;;;;;;5108455;28;20215;-71
2021/11/09 01:36:50;;;;;;;40.63;17.87;;;6.30;99.90;;;;;;5108529;28;20603;-71
2021/11/09 01:39:38;;;;;;;36.53;18.97;;;6.30;99.90;;;;;;5107648;28;20203;-71
2021/11/09 01:42:25;;;;;;;33.90;18.40;;;6.30;99.90;;;;;;5103112;28;20207;-71
2021/11/09 01:45:13;;;;;;;34.17;18.27;;;6.30;99.90;;;;;;5107102;28;20750;-71
2021/11/09 01:48:03;;;;;;;36.93;17.07;;;6.30;99.90;;;;;;5111648;28;20208;-71
2021/11/09 01:50:56;;;;;;;37.17;18.97;;;6.30;99.90;;;;;;5111363;28;20199;-71
2021/11/09 01:53:45;;;;;;;39.87;18.73;;;6.30;99.90;;;;;;5112259;28;20642;-71
2021/11/09 01:56:33;;;;;;;35.60;17.57;;;6.30;99.90;;;;;;5112070;28;20203;-71
2021/11/09 01:59:21;;;;;;;34.53;18.60;;;6.30;99.90;;;;;;5108049;28;20210;-72
2021/11/09 02:02:08;;;;;;;45.43;19.83;;;6.30;99.90;;;;;;5099222;28;20202;-71
2021/11/09 02:04:57;;;;;;;35.83;19.10;;;6.30;99.90;;;;;;5112629;28;20202;-71
2021/11/09 02:07:45;;;;;;;35.63;19.17;;;6.30;99.90;;;;;;5112259;28;20206;-71
2021/11/09 02:10:34;;;;;;;37.87;18.43;;;6.30;99.90;;;;;;5107944;28;20255;-71
2021/11/09 02:13:22;;;;;;;39.77;18.57;;;6.30;99.90;;;;;;5090530;28;20198;-72
2021/11/09 02:16:10;;;;;;;34.60;18.03;;;6.30;99.90;;;;;;5078659;28;20240;-71
2021/11/09 02:18:57;;;;;;;37.33;17.60;;;6.30;99.90;;;;;;5077485;28;20205;-72
2021/11/09 02:21:46;;;;;;;37.67;18.67;;;6.20;99.90;;;;;;5095564;28;20336;-71
2021/11/09 02:24:34;;;;;;;33.00;14.97;;;6.20;99.90;;;;;;5082218;28;20201;-71
2021/11/09 02:27:22;;;;;;;35.37;17.23;;;6.20;99.90;;;;;;5093253;28;20215;-72
2021/11/09 02:30:12;;;;;;;34.83;16.87;;;6.20;99.90;;;;;;5103554;28;20654;-72
2021/11/09 02:33:00;;;;;;;35.10;16.17;;;6.20;99.90;;;;;;5099941;28;20199;-72
2021/11/09 02:35:48;;;;;;;32.93;16.90;;;6.20;99.90;;;;;;5110762;28;20234;-71
2021/11/09 02:38:37;;;;;;;31.53;16.40;;;6.20;99.90;;;;;;5110458;28;20669;-71
2021/11/09 02:41:25;;;;;;;29.20;16.33;;;6.20;99.90;;;;;;5111397;28;20292;-71
2021/11/09 02:44:12;;;;;;;36.87;16.60;;;6.20;99.90;;;;;;5104318;28;20233;-71
2021/11/09 02:47:04;;;;;;;31.80;15.67;;;6.20;99.90;;;;;;5112374;28;20336;-71
2021/11/09 02:49:57;;;;;;;29.07;16.63;;;6.20;99.90;;;;;;5104993;28;20205;-71
2021/11/09 02:52:51;;;;;;;31.13;15.40;;;6.20;99.90;;;;;;5111214;28;20680;-71
2021/11/09 02:55:43;;;;;;;31.80;14.97;;;6.20;99.90;;;;;;5110217;28;20220;-71
2021/11/09 02:58:42;;;;;;;28.53;15.10;;;6.20;99.90;;;;;;5110201;28;20226;-71
2021/11/09 03:01:34;;;;;;;27.83;14.33;;;6.20;99.90;;;;;;5107287;28;20691;-71
2021/11/09 03:04:31;;;;;;;27.13;14.33;;;6.20;99.90;;;;;;5109813;28;20814;-72
2021/11/09 03:07:28;;;;;;;29.90;14.27;;;6.20;99.90;;;;;;5104980;28;20328;-71
2021/11/09 03:10:22;;;;;;;25.37;13.63;;;6.20;99.90;;;;;;5104285;28;20563;-71
2021/11/09 03:13:11;;;;;;;22.97;13.33;;;6.20;99.90;;;;;;5107186;28;20278;-71
2021/11/09 03:16:03;;;;;;;23.37;12.90;;;6.20;99.90;;;;;;5110418;28;20239;-71
2021/11/09 03:18:54;;;;;;;22.13;11.33;;;6.20;99.90;;;;;;5109613;28;20284;-71
2021/11/09 03:40:28;;;;;;;17.40;10.97;;;6.20;99.90;;;;;;5012814;28;20229;-72
2021/11/09 03:46:27;;;;;;;18.73;11.23;;;6.20;99.90;;;;;;5019334;28;20199;-71
2021/11/09 03:49:16;;;;;;;18.47;11.43;;;6.10;99.90;;;;;;5013324;28;20195;-71
2021/11/09 03:52:08;;;;;;;20.83;11.30;;;6.10;99.90;;;;;;5017864;28;20206;-71
2021/11/09 03:55:01;;;;;;;17.33;10.20;;;6.20;99.90;;;;;;5013035;28;20229;-71
2021/11/09 03:57:51;;;;;;;19.43;11.73;;;6.20;99.90;;;;;;5014803;28;20226;-71
2021/11/09 04:00:44;;;;;;;18.37;11.10;;;6.20;99.90;;;;;;5020331;28;20213;-71
2021/11/09 04:03:44;;;;;;;20.80;10.77;;;6.20;99.90;;;;;;5018583;28;20209;-72
2021/11/09 04:06:36;;;;;;;20.27;10.63;;;6.10;99.90;;;;;;5031142;28;20729;-71
2021/11/09 04:09:27;;;;;;;17.17;10.87;;;6.10;99.90;;;;;;5104509;28;20207;-72
2021/11/09 04:12:27;;;;;;;17.53;10.37;;;6.20;99.90;;;;;;5106119;28;20205;-71
2021/11/09 04:15:33;;;;;;;17.93;10.60;;;6.20;99.90;;;;;;5102195;28;20263;-71
2021/11/09 04:18:47;;;;;;;17.97;10.27;;;6.20;99.90;;;;;;5075993;28;20196;-72
2021/11/09 04:22:11;;;;;;;21.90;10.90;;;6.20;99.90;;;;;;5077916;28;20212;-71
2021/11/09 04:28:08;;;;;;;18.93;11.40;;;6.10;99.90;;;;;;5070026;28;20196;-71
2021/11/09 04:31:11;;;;;;;24.77;12.67;;;6.10;99.90;;;;;;5077252;28;20262;-72
2021/11/09 05:08:28;;;;;;;24.70;14.17;;;6.10;99.90;;;;;;4973621;28;20235;-71
2021/11/09 05:11:17;;;;;;;28.83;14.03;;;6.10;99.90;;;;;;4976402;28;20199;-71
2021/11/09 05:14:05;;;;;;;32.03;15.30;;;6.10;99.90;;;;;;4984749;28;20282;-71
2021/11/09 05:16:52;;;;;;;36.87;16.30;;;6.10;99.90;;;;;;5007720;28;20230;-71
2021/11/09 05:19:40;;;;;;;31.73;16.00;;;6.10;99.90;;;;;;5018139;28;20195;-71
2021/11/09 05:22:28;;;;;;;31.87;15.53;;;6.10;99.90;;;;;;5023939;28;20237;-71
2021/11/09 05:25:16;;;;;;;38.90;16.57;;;6.10;99.90;;;;;;5086994;28;20654;-71
2021/11/09 05:28:06;;;;;;;38.97;18.17;;;6.10;99.90;;;;;;5079286;28;20194;-71
2021/11/09 05:30:53;;;;;;;30.73;15.23;;;6.10;99.90;;;;;;5087186;28;20670;-71
2021/11/09 05:33:41;;;;;;;36.10;15.17;;;6.10;99.90;;;;;;5102440;28;21483;-71
2021/11/09 05:36:32;;;;;;;31.83;16.43;;;6.20;99.90;;;;;;5096873;28;20222;-71
2021/11/09 05:39:23;;;;;;;36.57;16.07;;;6.10;99.90;;;;;;5093177;28;20335;-71
2021/11/09 05:42:13;;;;;;;38.90;17.37;;;6.10;99.90;;;;;;5092271;28;20264;-71
2021/11/09 05:45:00;;;;;;;35.37;16.90;;;6.10;99.90;;;;;;5090828;28;20195;-70
2021/11/09 05:47:48;;;;;;;36.80;17.30;;;6.00;99.90;;;;;;5098060;28;20218;-73
2021/11/09 05:50:35;;;;;;;31.97;17.33;;;6.10;99.90;;;;;;5095674;28;20203;-70
2021/11/09 05:53:23;;;;;;;32.57;15.87;;;6.10;99.90;;;;;;5095956;28;20208;-71
2021/11/09 05:56:11;;;;;;;32.63;15.10;;;6.10;99.90;;;;;;5091882;28;20219;-71
2021/11/09 05:59:00;;;;;;;33.53;15.73;;;6.10;99.90;;;;;;5097384;28;20203;-71
2021/11/09 06:01:48;;;;;;;40.50;16.80;;;6.10;99.90;;;;;;5098300;28;20210;-71
2021/11/09 06:04:35;;;;;;;35.03;16.60;;;6.10;99.90;;;;;;5094361;28;20733;-71
2021/11/09 06:07:23;;;;;;;35.70;17.57;;;6.00;99.90;;;;;;5099533;28;20541;-71
2021/11/09 06:10:10;;;;;;;38.33;17.30;;;6.00;99.90;;;;;;5094819;28;20595;-71
2021/11/09 06:12:59;;;;;;;34.27;17.57;;;6.10;99.90;;;;;;5088349;28;20237;-71
2021/11/09 06:15:48;;;;;;;38.93;18.73;;;6.10;99.90;;;;;;5092771;28;20254;-71
2021/11/09 06:18:36;;;;;;;36.07;18.07;;;6.00;99.90;;;;;;5104507;28;20206;-71
2021/11/09 06:21:23;;;;;;;34.20;18.43;;;6.00;99.90;;;;;;5106591;28;20191;-71
2021/11/09 06:24:11;;;;;;;38.40;19.17;;;6.00;99.90;;;;;;5106736;28;20198;-71
2021/11/09 06:26:59;;;;;;;50.23;19.83;;;6.00;99.90;;;;;;5107105;28;20686;-71
2021/11/09 06:29:46;;;;;;;41.23;19.23;;;6.00;99.90;;;;;;5104300;28;20193;-71
2021/11/09 06:32:36;;;;;;;35.43;16.53;;;6.00;99.90;;;;;;5098426;28;20195;-71
2021/11/09 06:35:23;;;;;;;46.83;19.70;;;6.10;99.90;;;;;;5098201;28;20725;-71
2021/11/09 06:38:11;;;;;;;41.10;18.20;;;6.10;99.90;;;;;;5103679;28;20284;-71
2021/11/09 06:40:59;;;;;;;35.67;16.60;;;6.10;99.90;;;;;;5101352;28;20206;-70
2021/11/09 06:43:47;;;;;;;35.80;16.30;;;6.10;99.90;;;;;;5111545;28;20199;-70
2021/11/09 06:46:34;;;;;;;34.17;15.47;;;6.10;99.90;;;;;;5111314;28;20195;-70
2021/11/09 06:49:24;;;;;;;33.63;15.90;;;6.10;99.90;;;;;;5109126;28;20200;-70
2021/11/09 06:52:13;;;;;;;28.33;14.93;;;6.10;99.90;;;;;;5110152;28;20573;-70
2021/11/09 06:55:01;;;;;;;29.13;14.37;;;6.10;99.90;;;;;;5108219;28;20230;-70
2021/11/09 06:57:49;;;;;;;28.90;14.43;;;6.20;99.90;;;;;;5109759;28;20723;-70
2021/11/09 07:00:37;;;;;;;21.30;11.20;;;6.20;99.90;;;;;;5107060;28;20620;-69
2021/11/09 07:03:25;;;;;;;25.70;13.90;;;6.20;99.90;;;;;;5107056;28;20207;-70
2021/11/09 07:06:14;;;;;;;23.20;12.50;;;6.20;99.90;;;;;;5103695;28;20199;-70
2021/11/09 07:09:01;;;;;;;25.30;14.27;;;6.20;99.90;;;;;;5103643;28;20195;-70
2021/11/09 07:11:49;;;;;;;29.53;14.77;;;6.20;99.90;;;;;;5110067;28;20236;-70
2021/11/09 07:14:37;;;;;;;31.30;14.17;;;6.20;99.90;;;;;;5109463;28;20196;-70
2021/11/09 07:17:24;;;;;;;32.47;14.03;;;6.20;99.90;;;;;;5109774;28;20308;-70
2021/11/09 07:20:13;;;;;;;32.03;14.40;;;6.20;99.90;;;;;;5110143;28;20199;-70
2021/11/09 07:23:03;;;;;;;29.07;14.17;;;6.30;99.90;;;;;;5094713;28;20690;-70
2021/11/09 07:25:50;;;;;;;28.87;13.87;;;6.30;99.90;;;;;;5111347;28;20206;-70
2021/11/09 07:28:39;;;;;;;23.97;13.43;;;6.30;99.90;;;;;;5108944;28;20202;-70
2021/11/09 07:31:26;;;;;;;31.40;15.00;;;6.30;99.90;;;;;;5110879;28;20203;-70
2021/11/09 07:34:14;;;;;;;24.83;13.70;;;6.30;99.90;;;;;;5107557;28;20196;-70
2021/11/09 07:37:02;;;;;;;34.03;13.53;;;6.30;99.90;;;;;;5076614;28;20248;-70
2021/11/09 07:39:51;;;;;;;27.80;13.93;;;6.30;99.90;;;;;;5083159;28;20291;-71
2021/11/09 07:42:45;;;;;;;25.60;13.20;;;6.30;99.90;;;;;;5109039;28;20674;-70
2021/11/09 07:45:35;;;;;;;21.10;9.60;;;6.30;99.90;;;;;;5111259;28;20615;-70
2021/11/09 07:48:23;;;;;;;21.03;11.67;;;6.30;99.90;;;;;;5112011;28;20204;-70
2021/11/09 07:51:10;;;;;;;23.43;11.60;;;6.30;99.90;;;;;;5111152;28;20560;-71
2021/11/09 07:53:59;;;;;;;23.20;11.93;;;6.30;99.90;;;;;;5109434;28;20208;-72
2021/11/09 07:56:49;;;;;;;22.13;11.60;;;6.30;99.90;;;;;;5103834;28;20215;-71
2021/11/09 07:59:40;;;;;;;26.47;11.00;;;6.30;99.90;;;;;;5103152;28;20214;-70
2021/11/09 08:02:30;;;;;;;22.13;10.37;;;6.40;99.90;;;;;;5110584;28;20215;-70
2021/11/09 08:05:19;;;;;;;21.93;10.40;;;6.40;99.90;;;;;;5110179;28;20195;-70
2021/11/09 08:08:11;;;;;;;23.37;10.67;;;6.40;99.90;;;;;;5104055;28;20290;-70
2021/11/09 08:10:59;;;;;;;21.00;11.03;;;6.50;99.90;;;;;;5081461;28;20244;-71
2021/11/09 08:13:48;;;;;;;18.93;9.93;;;6.50;99.90;;;;;;5094060;28;20199;-70
2021/11/09 08:16:36;;;;;;;22.20;10.23;;;6.50;99.90;;;;;;5086746;28;20320;-70
2021/11/09 08:19:23;;;;;;;18.90;9.57;;;6.60;99.90;;;;;;5095103;28;20196;-71
2021/11/09 08:22:11;;;;;;;21.00;9.90;;;6.60;99.90;;;;;;5109913;28;20200;-70
2021/11/09 08:24:59;;;;;;;17.93;9.70;;;6.60;99.90;;;;;;5110584;28;20222;-71
2021/11/09 08:27:46;;;;;;;21.07;8.37;;;6.60;99.90;;;;;;5073836;28;20757;-70
2021/11/09 08:30:36;;;;;;;18.00;9.37;;;6.60;99.90;;;;;;5108079;28;20611;-70
2021/11/09 08:33:26;;;;;;;21.40;9.73;;;6.60;99.90;;;;;;5100348;28;20663;-70
2021/11/09 08:36:15;;;;;;;17.70;9.30;;;6.60;99.90;;;;;;5107037;28;20361;-70
2021/11/09 08:39:05;;;;;;;16.10;8.63;;;6.60;99.90;;;;;;5104049;28;20219;-70
2021/11/09 08:42:00;;;;;;;16.50;8.40;;;6.60;99.90;;;;;;5080402;28;20246;-70
2021/11/09 08:44:50;;;;;;;18.23;8.93;;;6.60;99.90;;;;;;5089590;28;20204;-71
2021/11/09 08:47:45;;;;;;;16.40;9.13;;;6.60;99.90;;;;;;5081579;28;20203;-71
2021/11/09 08:50:33;;;;;;;20.17;8.73;;;6.60;99.90;;;;;;5100751;28;20202;-70
2021/11/09 08:53:24;;;;;;;14.80;7.77;;;6.60;99.90;;;;;;5108544;28;20191;-70
2021/11/09 09:05:28;;;;;;;14.50;8.30;;;6.80;99.90;;;;;;5106730;28;20192;-70
2021/11/09 09:08:16;;;;;;;14.97;8.37;;;6.70;99.90;;;;;;5069697;28;20222;-70
2021/11/09 09:11:04;;;;;;;15.87;8.63;;;6.80;99.90;;;;;;5099546;28;20211;-70
2021/11/09 09:13:52;;;;;;;18.07;8.83;;;6.80;99.90;;;;;;5089100;28;20198;-70
2021/11/09 09:16:45;;;;;;;16.20;9.73;;;6.90;99.90;;;;;;5088275;28;20221;-71
2021/11/09 09:19:36;;;;;;;21.80;10.07;;;6.90;99.90;;;;;;5084118;28;20281;-70
2021/11/09 09:22:29;;;;;;;20.60;10.10;;;6.90;99.90;;;;;;5109415;28;20192;-70
2021/11/09 09:25:24;;;;;;;25.70;10.47;;;6.90;99.90;;;;;;5104225;28;20333;-71
2021/11/09 09:31:49;;;;;;;20.23;9.93;;;7.00;99.90;;;;;;5099397;28;20576;-70
2021/11/09 09:53:28;;;;;;;24.77;13.20;;;7.40;99.90;;;;;;5079156;28;20225;-70
2021/11/09 09:56:18;;;;;;;25.10;13.27;;;7.40;99.90;;;;;;5078974;28;20676;-70
2021/11/09 09:59:07;;;;;;;29.93;14.83;;;7.40;99.90;;;;;;5080521;28;20216;-71
2021/11/09 10:02:06;;;;;;;32.77;17.07;;;7.50;99.90;;;;;;5079252;28;20245;-70
2021/11/09 10:04:57;;;;;;;32.57;17.70;;;7.70;99.90;;;;;;5070113;28;20690;-70
2021/11/09 10:07:50;;;;;;;36.33;16.40;;;8.30;99.90;;;;;;5102946;28;20200;-71
2021/11/09 10:10:39;;;;;;;28.40;14.77;;;8.80;99.90;;;;;;5112410;28;20200;-71
2021/11/09 10:13:26;;;;;;;24.13;13.10;;;9.00;99.90;;;;;;5099018;28;20191;-71
2021/11/09 10:16:15;;;;;;;30.07;14.20;;;9.10;99.90;;;;;;5103340;28;20307;-70
2021/11/09 10:19:03;;;;;;;20.27;11.73;;;9.10;99.90;;;;;;5111772;28;20214;-70
2021/11/09 10:21:51;;;;;;;25.53;13.70;;;9.30;99.90;;;;;;5111082;28;20520;-71
2021/11/09 10:24:38;;;;;;;23.50;11.93;;;9.30;99.90;;;;;;5104968;28;20323;-70
2021/11/09 10:27:28;;;;;;;22.93;12.53;;;9.20;99.90;;;;;;5112282;28;20213;-71
2021/11/09 10:30:17;;;;;;;21.10;11.80;;;9.20;99.90;;;;;;5111199;28;20210;-71
2021/11/09 10:33:05;;;;;;;23.57;12.10;;;9.30;99.90;;;;;;5112513;28;20222;-70
2021/11/09 10:35:55;;;;;;;19.07;10.57;;;9.20;99.90;;;;;;5111198;28;20200;-70
2021/11/09 10:38:42;;;;;;;20.40;9.37;;;8.90;99.90;;;;;;5101226;28;20216;-71
2021/11/09 10:41:30;;;;;;;18.87;9.50;;;8.60;99.90;;;;;;5112032;28;20658;-71
2021/11/09 10:44:19;;;;;;;25.23;11.67;;;8.50;99.90;;;;;;5112088;28;20199;-70
2021/11/09 10:47:18;;;;;;;17.93;10.40;;;8.50;99.90;;;;;;5112375;28;20204;-70
2021/11/09 10:50:08;;;;;;;14.53;9.07;;;8.50;99.90;;;;;;5111747;28;20251;-70
2021/11/09 10:53:02;;;;;;;19.17;9.20;;;8.50;99.90;;;;;;5111660;28;20263;-70
2021/11/09 10:55:57;;;;;;;17.23;8.63;;;8.50;99.90;;;;;;5108485;28;20380;-71
2021/11/09 10:59:04;;;;;;;16.90;8.20;;;8.50;99.90;;;;;;5111855;28;20204;-71
2021/11/09 11:05:18;;;;;;;15.43;8.30;;;8.40;99.90;;;;;;5110411;28;20269;-70
2021/11/09 11:08:05;;;;;;;13.33;7.37;;;8.30;99.90;;;;;;5111084;28;20203;-71
2021/11/09 11:10:55;;;;;;;12.97;7.60;;;8.30;99.90;;;;;;5112601;28;20187;-70
2021/11/09 11:13:43;;;;;;;15.97;7.73;;;8.30;99.90;;;;;;5105504;28;20562;-71
2021/11/09 11:16:31;;;;;;;15.73;8.10;;;8.20;99.90;;;;;;5113055;28;20665;-70
2021/11/09 11:19:22;;;;;;;13.97;7.33;;;8.10;99.90;;;;;;5111767;28;20214;-71
2021/11/09 11:22:12;;;;;;;11.97;7.60;;;8.10;99.90;;;;;;5113368;28;20210;-70
2021/11/09 11:25:02;;;;;;;17.50;8.57;;;8.20;99.90;;;;;;5112276;28;20212;-71
2021/11/09 11:27:50;;;;;;;17.07;8.23;;;8.20;99.90;;;;;;5112282;28;20205;-71
2021/11/09 11:30:38;;;;;;;18.37;8.23;;;8.20;99.90;;;;;;5104237;28;20202;-70
2021/11/09 11:33:29;;;;;;;15.17;8.30;;;8.20;99.90;;;;;;5112337;28;20222;-71
2021/11/09 11:36:18;;;;;;;14.73;7.70;;;8.30;99.90;;;;;;5110944;28;20199;-70
2021/11/09 11:39:08;;;;;;;17.87;8.17;;;8.20;99.90;;;;;;5109595;28;20217;-71
2021/11/09 11:41:57;;;;;;;13.50;7.43;;;8.30;99.90;;;;;;5113261;28;20248;-70
2021/11/09 11:44:45;;;;;;;14.00;7.73;;;8.30;99.90;;;;;;5105016;28;20405;-70
2021/11/09 11:47:32;;;;;;;17.80;9.07;;;8.20;99.90;;;;;;5100836;28;20191;-70
2021/11/09 11:50:20;;;;;;;19.23;9.97;;;8.30;99.90;;;;;;5112435;28;20205;-70
2021/11/09 11:53:09;;;;;;;18.93;10.60;;;8.40;99.90;;;;;;5111918;28;20581;-71
2021/11/09 11:55:57;;;;;;;23.60;11.17;;;8.30;99.90;;;;;;5112965;28;20224;-70
2021/11/09 11:58:45;;;;;;;23.60;12.70;;;8.40;99.90;;;;;;5104720;28;20198;-70
2021/11/09 12:01:39;;;;;;;26.63;14.40;;;8.40;99.90;;;;;;5110890;28;20207;-70
2021/11/09 12:04:52;;;;;;;27.83;14.47;;;8.30;99.90;;;;;;5111880;28;20243;-70
2021/11/09 12:07:54;;;;;;;24.73;12.53;;;8.40;99.90;;;;;;5110830;28;20654;-70
2021/11/09 12:10:46;;;;;;;24.70;13.10;;;8.40;99.90;;;;;;5104857;28;20410;-70
2021/11/09 12:13:54;;;;;;;28.20;15.37;;;8.20;99.90;;;;;;5112037;28;20547;-71
2021/11/09 12:16:50;;;;;;;33.93;16.50;;;8.30;99.90;;;;;;5104057;28;20241;-70
2021/11/09 12:19:48;;;;;;;34.23;18.23;;;8.40;99.90;;;;;;5101933;28;20661;-70
2021/11/09 12:22:44;;;;;;;39.90;18.30;;;8.50;99.90;;;;;;5101990;28;20706;-71
2021/11/09 12:25:38;;;;;;;34.20;17.40;;;8.50;99.90;;;;;;5100213;28;20206;-71
2021/11/09 12:28:33;;;;;;;30.73;16.10;;;8.60;99.90;;;;;;5110073;28;20274;-70
2021/11/09 12:31:21;;;;;;;28.97;16.33;;;8.60;99.90;;;;;;5110819;28;20199;-71
2021/11/09 12:34:08;;;;;;;30.60;16.00;;;8.60;99.90;;;;;;5110226;28;20206;-71
2021/11/09 12:37:20;;;;;;;26.27;15.13;;;8.60;99.90;;;;;;5111054;28;20263;-71
2021/11/09 12:40:28;;;;;;;29.07;14.47;;;8.50;99.90;;;;;;5109896;28;20567;-71
2021/11/09 12:43:21;;;;;;;31.43;16.10;;;8.40;99.90;;;;;;5108207;28;20199;-71
2021/11/09 12:46:13;;;;;;;32.20;15.10;;;8.40;99.90;;;;;;5111808;28;20675;-71
2021/11/09 12:49:01;;;;;;;28.60;14.20;;;8.30;99.90;;;;;;5110468;28;20195;-71
2021/11/09 12:51:50;;;;;;;29.87;14.83;;;8.30;99.90;;;;;;5112073;28;20336;-71
2021/11/09 12:54:38;;;;;;;31.57;14.47;;;8.20;99.90;;;;;;5110163;28;20219;-70
2021/11/09 12:57:26;;;;;;;30.10;14.60;;;8.20;99.90;;;;;;5111923;28;20557;-71
2021/11/09 13:00:16;;;;;;;33.00;15.50;;;8.20;99.90;;;;;;5107657;28;20203;-71
2021/11/09 13:03:05;;;;;;;28.67;15.83;;;8.20;99.90;;;;;;5108341;28;20204;-70
2021/11/09 13:06:01;;;;;;;34.20;17.10;;;8.20;99.90;;;;;;5109307;28;20626;-71
2021/11/09 13:08:58;;;;;;;31.77;16.47;;;8.10;99.90;;;;;;5104429;28;20194;-71
2021/11/09 13:11:49;;;;;;;39.57;18.57;;;8.10;99.90;;;;;;5103032;28;20281;-72
2021/11/09 13:14:40;;;;;;;35.63;18.23;;;8.00;99.90;;;;;;5093645;28;20198;-71
2021/11/09 13:17:32;;;;;;;34.23;18.07;;;8.10;99.90;;;;;;5096501;28;20225;-71
2021/11/09 13:20:24;;;;;;;27.00;15.17;;;8.20;99.90;;;;;;5108511;28;20198;-70
2021/11/09 13:23:13;;;;;;;32.47;16.00;;;8.30;99.90;;;;;;5095652;28;20544;-71
2021/11/09 13:26:01;;;;;;;29.03;15.53;;;8.40;99.90;;;;;;5088322;28;20210;-71
2021/11/09 13:28:48;;;;;;;33.37;16.13;;;8.50;99.90;;;;;;5105775;28;20273;-71
2021/11/09 13:31:36;;;;;;;34.87;16.80;;;8.60;99.90;;;;;;5108298;28;20675;-71
2021/11/09 13:34:25;;;;;;;36.27;17.47;;;9.10;99.90;;;;;;5110111;28;20221;-71
2021/11/09 13:37:14;;;;;;;28.67;16.53;;;10.00;99.90;;;;;;5108195;28;20214;-71
2021/11/09 13:40:03;;;;;;;30.97;15.80;;;11.90;1.00;;;;;;5108247;28;20281;-71
2021/11/09 13:43:01;;;;;;;32.50;14.33;;;13.30;99.90;;;;;;5103240;28;20629;-71
2021/11/09 13:45:56;;;;;;;24.97;14.73;;;14.50;99.90;;;;;;5098979;28;20204;-71
2021/11/09 13:48:46;;;;;;;26.97;14.83;;;14.80;99.90;;;;;;5097967;28;20204;-71
2021/11/09 13:51:37;;;;;;;25.83;14.77;;;14.00;99.90;;;;;;5094370;28;20319;-72
2021/11/09 13:54:30;;;;;;;25.40;15.10;;;14.20;99.90;;;;;;5078668;28;20266;-71
2021/11/09 13:57:18;;;;;;;25.10;14.07;;;14.30;99.90;;;;;;5071947;28;20358;-71
2021/11/09 14:00:30;;;;;;;26.83;14.93;;;14.30;99.90;;;;;;5077402;28;20246;-71
2021/11/09 14:03:27;;;;;;;29.87;16.23;;;15.00;99.90;;;;;;5072046;28;20697;-72
2021/11/09 14:06:53;;;;;;;28.90;16.00;;;15.50;99.90;;;;;;5075815;28;20209;-71
2021/11/09 14:09:53;;;;;;;28.40;16.47;;;15.90;99.90;;;;;;5076359;28;20217;-71
2021/11/09 14:18:57;;;;;;;29.83;16.30;;;14.80;99.90;;;;;;5074032;28;20381;-71
2021/11/09 14:21:45;;;;;;;26.67;15.37;;;14.90;99.90;;;;;;5076678;28;20264;-71
2021/11/09 14:24:33;;;;;;;34.83;17.17;;;14.40;99.90;;;;;;5066389;28;21144;-72
2021/11/09 14:27:27;;;;;;;32.03;17.87;;;13.70;99.90;;;;;;4982273;28;20230;-72
2021/11/09 14:30:20;;;;;;;31.57;18.50;;;12.90;99.90;;;;;;5078112;28;20200;-72
2021/11/09 14:33:15;;;;;;;34.37;18.03;;;12.30;99.90;;;;;;5081215;28;20211;-72
2021/11/09 14:36:02;;;;;;;28.97;17.67;;;11.80;1.00;;;;;;4924312;28;20234;-72
2021/11/09 14:38:52;;;;;;;33.23;17.67;;;11.40;99.90;;;;;;5032692;28;20220;-72
2021/11/09 14:42:02;;;;;;;30.03;17.13;;;10.90;1.00;;;;;;5073522;28;20692;-72
2021/11/09 14:45:09;;;;;;;28.43;15.90;;;10.40;99.60;;;;;;5020794;28;20686;-71
2021/11/09 14:47:59;;;;;;;30.40;18.00;;;10.00;99.90;;;;;;5077865;28;20203;-71
2021/11/09 14:50:50;;;;;;;30.87;17.10;;;9.80;99.90;;;;;;5080710;28;20703;-72
2021/11/09 14:53:42;;;;;;;32.07;17.80;;;9.50;99.90;;;;;;5045387;28;20238;-72
2021/11/09 14:56:31;;;;;;;28.07;17.53;;;9.20;1.00;;;;;;4817189;28;20683;-73
2021/11/09 14:59:19;;;;;;;30.37;17.27;;;8.90;1.00;;;;;;4883829;28;20695;-71
2021/11/09 15:02:15;;;;;;;31.83;18.20;;;8.70;1.00;;;;;;5089433;28;20733;-71
2021/11/09 15:05:04;;;;;;;32.07;17.33;;;8.40;1.00;;;;;;5085299;28;20207;-71
2021/11/09 15:08:08;;;;;;;33.73;16.90;;;8.10;1.00;;;;;;4900588;28;20260;-72
2021/11/09 15:11:11;;;;;;;33.53;18.13;;;7.80;1.00;;;;;;5080462;28;20397;-71
2021/11/09 15:26:25;;;;;;;144.47;34.60;;;6.90;1.00;;;;;;5081392;28;20206;-71
2021/11/09 15:29:23;;;;;;;46.80;21.30;;;6.70;1.00;;;;;;5081939;28;20534;-71
2021/11/09 15:32:13;;;;;;;49.00;21.50;;;6.60;1.00;;;;;;5082166;28;20194;-69
2021/11/09 15:35:09;;;;;;;63.10;23.23;;;6.40;5.40;;;;;;5080313;28;20213;-69
2021/11/09 15:37:59;;;;;;;72.43;30.10;;;6.20;4.20;;;;;;5074649;28;20269;-68
2021/11/09 15:40:48;;;;;;;59.93;25.17;;;6.10;18.40;;;;;;5086874;28;20199;-69
2021/11/09 15:43:39;;;;;;;65.87;31.77;;;5.90;24.30;;;;;;5091026;28;20203;-69
2021/11/09 15:46:27;;;;;;;70.33;30.97;;;5.80;28.20;;;;;;5082087;28;20203;-68
2021/11/09 15:49:15;;;;;;;71.13;28.07;;;5.60;37.70;;;;;;5080867;28;20195;-69
2021/11/09 15:52:03;;;;;;;276.27;28.77;;;5.50;55.40;;;;;;5081590;28;20577;-70
2021/11/09 15:54:52;;;;;;;58.80;26.57;;;5.30;85.70;;;;;;5084640;28;20390;-69
2021/11/09 15:57:41;;;;;;;62.93;26.53;;;5.20;98.50;;;;;;5079434;28;20232;-68
2021/11/09 16:00:29;;;;;;;60.67;26.27;;;5.10;99.90;;;;;;5082319;28;20200;-69
2021/11/09 16:03:18;;;;;;;59.57;27.03;;;5.00;99.90;;;;;;5079908;28;20188;-69
2021/11/09 16:06:08;;;;;;;92.27;41.63;;;4.90;99.90;;;;;;5082287;28;20267;-68
2021/11/09 16:08:56;;;;;;;118.67;55.90;;;4.80;99.90;;;;;;5073268;28;20343;-69
2021/11/09 16:11:47;;;;;;;146.97;68.13;;;4.70;99.90;;;;;;5079743;28;20636;-68
2021/11/09 16:14:35;;;;;;;121.43;51.63;;;4.60;99.90;;;;;;5083179;28;20283;-69
2021/11/09 16:17:23;;;;;;;89.23;39.43;;;4.60;99.90;;;;;;5076907;28;20228;-70
2021/11/09 16:20:12;;;;;;;103.60;45.87;;;4.40;99.90;;;;;;5077711;28;20204;-69
2021/11/09 16:23:00;;;;;;;147.50;57.13;;;4.40;99.90;;;;;;5083492;28;20741;-69
2021/11/09 16:25:48;;;;;;;81.83;37.47;;;4.30;99.90;;;;;;5072742;28;20207;-69
2021/11/09 16:28:37;;;;;;;119.60;49.23;;;4.10;99.90;;;;;;5079990;28;20277;-69
2021/11/09 16:31:25;;;;;;;122.00;50.43;;;4.00;99.90;;;;;;5082003;28;20247;-69